Time,TemperatureF,DewpointF,PressureIn,WindDirection,WindDirectionDegrees,WindSpeedMPH,WindSpeedGustMPH,Humidity,HourlyPrecipIn,Conditions,Clouds,dailyrainin,SoftwareType,DateUTC
2013-06-09 00:02:00,57.0,57.0,29.70,ENE,70,12.0,-999.0,100,-99.99,,,-99.99,,2013-06-09 05:02:00,
2013-06-09 00:12:00,57.0,57.0,29.69,East,80,9.0,-999.0,100,-99.99,,,-99.99,,2013-06-09 05:12:00,
2013-06-09 00:22:00,57.0,57.0,29.69,East,80,9.0,-999.0,100,-99.99,,,-99.99,,2013-06-09 05:22:00,
2013-06-09 00:32:00,57.0,57.0,29.68,East,80,10.0,17.0,100,-99.99,,,-99.99,,2013-06-09 05:32:00,
2013-06-09 00:42:00,57.0,57.0,29.68,East,80,10.0,17.0,100,-99.99,,,-99.99,,2013-06-09 05:42:00,
2013-06-09 00:52:00,57.0,57.0,29.67,East,80,10.0,-999.0,100,-99.99,,,-99.99,,2013-06-09 05:52:00,
2013-06-09 01:02:00,57.0,57.0,29.67,East,80,10.0,-999.0,100,-99.99,,,-99.99,,2013-06-09 06:02:00,
2013-06-09 01:12:00,57.0,57.0,29.67,East,80,9.0,-999.0,100,-99.99,,,-99.99,,2013-06-09 06:12:00,
2013-06-09 01:22:00,57.0,57.0,29.67,East,80,9.0,-999.0,100,-99.99,,,-99.99,,2013-06-09 06:22:00,
2013-06-09 01:32:00,57.0,57.0,29.66,East,80,6.0,-999.0,100,-99.99,,,-99.99,,2013-06-09 06:32:00,
2013-06-09 01:42:00,57.0,57.0,29.66,East,80,6.0,-999.0,100,-99.99,,,-99.99,,2013-06-09 06:42:00,
2013-06-09 01:52:00,59.0,59.0,29.65,East,80,7.0,-999.0,100,-99.99,,,-99.99,,2013-06-09 06:52:00,
2013-06-09 02:02:00,59.0,59.0,29.65,East,80,7.0,-999.0,100,-99.99,,,-99.99,,2013-06-09 07:02:00,
2013-06-09 02:12:00,59.0,59.0,29.65,East,80,7.0,-999.0,100,-99.99,,,-99.99,,2013-06-09 07:12:00,
2013-06-09 02:22:00,59.0,59.0,29.65,East,80,7.0,-999.0,100,-99.99,,,-99.99,,2013-06-09 07:22:00,
2013-06-09 02:32:00,59.0,59.0,29.63,East,80,7.0,-999.0,100,-99.99,,,-99.99,,2013-06-09 07:32:00,
2013-06-09 02:42:00,59.0,59.0,29.63,East,80,7.0,-999.0,100,-99.99,,,-99.99,,2013-06-09 07:42:00,
2013-06-09 02:52:00,59.0,59.0,29.63,ENE,70,7.0,-999.0,100,-99.99,,,-99.99,,2013-06-09 07:52:00,
2013-06-09 03:02:00,59.0,59.0,29.63,ENE,70,7.0,-999.0,100,-99.99,,,-99.99,,2013-06-09 08:02:00,
2013-06-09 03:12:00,59.0,59.0,29.62,ENE,70,7.0,-999.0,100,-99.99,,,-99.99,,2013-06-09 08:12:00,
2013-06-09 03:22:00,59.0,59.0,29.62,ENE,70,7.0,-999.0,100,-99.99,,,-99.99,,2013-06-09 08:22:00,
2013-06-09 03:32:00,59.0,59.0,29.62,ENE,70,9.0,-999.0,100,-99.99,,,-99.99,,2013-06-09 08:32:00,
2013-06-09 03:42:00,59.0,59.0,29.62,ENE,70,9.0,-999.0,100,-99.99,,,-99.99,,2013-06-09 08:42:00,
2013-06-09 03:53:00,57.0,57.0,29.61,ENE,60,7.0,-999.0,100,-99.99,,,-99.99,,2013-06-09 08:53:00,
2013-06-09 04:02:00,57.0,57.0,29.61,ENE,60,7.0,-999.0,100,-99.99,,,-99.99,,2013-06-09 09:02:00,
2013-06-09 04:12:00,57.0,57.0,29.61,ENE,60,7.0,-999.0,100,-99.99,,,-99.99,,2013-06-09 09:12:00,
2013-06-09 04:22:00,57.0,57.0,29.61,ENE,60,7.0,-999.0,100,-99.99,,,-99.99,,2013-06-09 09:22:00,
2013-06-09 04:33:00,57.0,57.0,29.61,NE,50,6.0,-999.0,100,-99.99,,,-99.99,,2013-06-09 09:33:00,
2013-06-09 04:43:00,57.0,57.0,29.61,NE,50,6.0,-999.0,100,-99.99,,,-99.99,,2013-06-09 09:43:00,
2013-06-09 04:52:00,57.0,57.0,29.61,NE,50,5.0,-999.0,100,-99.99,,,-99.99,,2013-06-09 09:52:00,
2013-06-09 05:03:00,57.0,57.0,29.61,NE,50,5.0,-999.0,100,-99.99,,,-99.99,,2013-06-09 10:03:00,
2013-06-09 05:12:00,57.0,57.0,29.61,NE,50,5.0,-999.0,100,-99.99,,,-99.99,,2013-06-09 10:12:00,
2013-06-09 05:23:00,57.0,57.0,29.61,NE,50,5.0,-999.0,100,-99.99,,,-99.99,,2013-06-09 10:23:00,
2013-06-09 05:32:00,59.0,59.0,29.61,NNE,20,7.0,-999.0,100,-99.99,,,-99.99,,2013-06-09 10:32:00,
2013-06-09 05:43:00,59.0,59.0,29.61,NNE,20,7.0,-999.0,100,-99.99,,,-99.99,,2013-06-09 10:43:00,
2013-06-09 05:52:00,57.0,57.0,29.61,North,360,7.0,-999.0,100,-99.99,,,-99.99,,2013-06-09 10:52:00,
2013-06-09 06:02:00,57.0,57.0,29.61,North,360,7.0,-999.0,100,-99.99,,,-99.99,,2013-06-09 11:02:00,
2013-06-09 06:12:00,57.0,57.0,29.61,North,0,0.0,-999.0,100,-99.99,,,-99.99,,2013-06-09 11:12:00,
2013-06-09 06:22:00,57.0,57.0,29.61,North,0,0.0,-999.0,100,-99.99,,,-99.99,,2013-06-09 11:22:00,
2013-06-09 06:32:00,57.0,57.0,29.62,North,0,0.0,-999.0,100,-99.99,,,-99.99,,2013-06-09 11:32:00,
2013-06-09 06:42:00,57.0,57.0,29.62,North,0,0.0,-999.0,100,-99.99,,,-99.99,,2013-06-09 11:42:00,
2013-06-09 06:52:00,57.0,57.0,29.63,North,0,0.0,-999.0,100,-99.99,,,-99.99,,2013-06-09 11:52:00,
2013-06-09 07:02:00,57.0,57.0,29.63,North,0,0.0,-999.0,100,-99.99,,,-99.99,,2013-06-09 12:02:00,
2013-06-09 07:12:00,57.0,57.0,29.63,North,350,5.0,-999.0,100,-99.99,,,-99.99,,2013-06-09 12:12:00,
2013-06-09 07:22:00,57.0,57.0,29.63,North,350,5.0,-999.0,100,-99.99,,,-99.99,,2013-06-09 12:22:00,
2013-06-09 07:32:00,57.0,57.0,29.63,NNW,340,5.0,-999.0,100,-99.99,,,-99.99,,2013-06-09 12:32:00,
2013-06-09 07:42:00,57.0,57.0,29.63,NNW,340,5.0,-999.0,100,-99.99,,,-99.99,,2013-06-09 12:42:00,
2013-06-09 07:52:00,57.0,57.0,29.64,NNW,340,7.0,-999.0,100,-99.99,,,-99.99,,2013-06-09 12:52:00,
2013-06-09 08:02:00,57.0,57.0,29.64,NNW,340,7.0,-999.0,100,-99.99,,,-99.99,,2013-06-09 13:02:00,
2013-06-09 08:12:00,57.0,57.0,29.64,NNW,330,6.0,-999.0,100,-99.99,,,-99.99,,2013-06-09 13:12:00,
2013-06-09 08:22:00,57.0,57.0,29.64,NNW,330,6.0,-999.0,100,-99.99,,,-99.99,,2013-06-09 13:22:00,
2013-06-09 08:32:00,57.0,57.0,29.65,NNW,330,8.0,-999.0,100,-99.99,,,-99.99,,2013-06-09 13:32:00,
2013-06-09 08:42:00,57.0,57.0,29.65,NNW,330,8.0,-999.0,100,-99.99,,,-99.99,,2013-06-09 13:42:00,
2013-06-09 08:52:00,59.0,59.0,29.66,NW,320,9.0,-999.0,100,-99.99,,,-99.99,,2013-06-09 13:52:00,
2013-06-09 09:02:00,59.0,59.0,29.66,NW,320,9.0,-999.0,100,-99.99,,,-99.99,,2013-06-09 14:02:00,
2013-06-09 09:12:00,59.0,59.0,29.66,NNW,330,12.0,22.0,100,-99.99,,,-99.99,,2013-06-09 14:12:00,
2013-06-09 09:22:00,59.0,59.0,29.66,NNW,330,12.0,22.0,100,-99.99,,,-99.99,,2013-06-09 14:22:00,
2013-06-09 09:32:00,57.0,57.0,29.67,NNW,330,13.0,18.0,100,-99.99,,,-99.99,,2013-06-09 14:32:00,
2013-06-09 09:42:00,57.0,57.0,29.67,NNW,330,13.0,18.0,100,-99.99,,,-99.99,,2013-06-09 14:42:00,
2013-06-09 09:52:00,57.0,57.0,29.67,NNW,330,13.0,24.0,100,-99.99,,,-99.99,,2013-06-09 14:52:00,
2013-06-09 10:02:00,57.0,57.0,29.67,NNW,330,13.0,24.0,100,-99.99,,,-99.99,,2013-06-09 15:02:00,
2013-06-09 10:12:00,57.0,57.0,29.67,NNW,330,13.0,24.0,100,-99.99,,,-99.99,,2013-06-09 15:12:00,
2013-06-09 10:22:00,57.0,57.0,29.67,NNW,330,13.0,24.0,100,-99.99,,,-99.99,,2013-06-09 15:22:00,
2013-06-09 10:33:00,57.0,57.0,29.68,NNW,330,18.0,24.0,100,-99.99,,,-99.99,,2013-06-09 15:33:00,
2013-06-09 10:43:00,57.0,57.0,29.68,NNW,330,18.0,24.0,100,-99.99,,,-99.99,,2013-06-09 15:43:00,
2013-06-09 10:53:00,59.0,59.0,29.69,NNW,330,15.0,21.0,100,-99.99,,,-99.99,,2013-06-09 15:53:00,
2013-06-09 11:03:00,59.0,59.0,29.69,NNW,330,15.0,21.0,100,-99.99,,,-99.99,,2013-06-09 16:03:00,
2013-06-09 11:13:00,59.0,59.0,29.70,NNW,340,16.0,22.0,100,-99.99,,,-99.99,,2013-06-09 16:13:00,
2013-06-09 11:23:00,59.0,59.0,29.70,NNW,340,16.0,22.0,100,-99.99,,,-99.99,,2013-06-09 16:23:00,
2013-06-09 11:33:00,61.0,61.0,29.70,NNW,330,15.0,21.0,100,-99.99,,,-99.99,,2013-06-09 16:33:00,
2013-06-09 11:42:00,61.0,61.0,29.70,NNW,330,15.0,21.0,100,-99.99,,,-99.99,,2013-06-09 16:42:00,
2013-06-09 11:53:00,61.0,61.0,29.72,NNW,330,15.0,-999.0,100,-99.99,,,-99.99,,2013-06-09 16:53:00,
2013-06-09 12:02:00,61.0,61.0,29.72,NNW,330,15.0,-999.0,100,-99.99,,,-99.99,,2013-06-09 17:02:00,
2013-06-09 12:12:00,61.0,61.0,29.72,NNW,330,14.0,24.0,100,-99.99,,,-99.99,,2013-06-09 17:12:00,
2013-06-09 12:22:00,61.0,61.0,29.72,NNW,330,14.0,24.0,100,-99.99,,,-99.99,,2013-06-09 17:22:00,
2013-06-09 12:32:00,61.0,61.0,29.73,NW,320,15.0,-999.0,100,-99.99,,,-99.99,,2013-06-09 17:32:00,
2013-06-09 12:42:00,61.0,61.0,29.73,NW,320,15.0,-999.0,100,-99.99,,,-99.99,,2013-06-09 17:42:00,
2013-06-09 12:52:00,61.0,61.0,29.73,NNW,330,17.0,23.0,100,-99.99,,,-99.99,,2013-06-09 17:52:00,
2013-06-09 13:02:00,61.0,61.0,29.73,NNW,330,17.0,23.0,100,-99.99,,,-99.99,,2013-06-09 18:02:00,
2013-06-09 13:12:00,61.0,61.0,29.73,NNW,330,17.0,25.0,100,-99.99,,,-99.99,,2013-06-09 18:12:00,
2013-06-09 13:22:00,61.0,61.0,29.73,NNW,330,17.0,25.0,100,-99.99,,,-99.99,,2013-06-09 18:22:00,
2013-06-09 13:32:00,61.0,61.0,29.74,NNW,330,16.0,22.0,100,-99.99,,,-99.99,,2013-06-09 18:32:00,
2013-06-09 13:42:00,61.0,61.0,29.74,NNW,330,16.0,22.0,100,-99.99,,,-99.99,,2013-06-09 18:42:00,
2013-06-09 13:52:00,63.0,61.0,29.74,NNW,330,17.0,23.0,93,-99.99,,,-99.99,,2013-06-09 18:52:00,
2013-06-09 14:02:00,63.0,61.0,29.74,NNW,330,17.0,23.0,93,-99.99,,,-99.99,,2013-06-09 19:02:00,
2013-06-09 14:12:00,63.0,61.0,29.75,NNW,330,14.0,25.0,93,-99.99,,,-99.99,,2013-06-09 19:12:00,
2013-06-09 14:22:00,63.0,61.0,29.75,NNW,330,14.0,25.0,93,-99.99,,,-99.99,,2013-06-09 19:22:00,
2013-06-09 14:32:00,63.0,61.0,29.75,NNW,330,13.0,23.0,93,-99.99,,,-99.99,,2013-06-09 19:32:00,
2013-06-09 14:42:00,63.0,61.0,29.75,NNW,330,13.0,23.0,93,-99.99,,,-99.99,,2013-06-09 19:42:00,
2013-06-09 14:52:00,63.0,61.0,29.76,NNW,340,15.0,22.0,93,-99.99,,,-99.99,,2013-06-09 19:52:00,
2013-06-09 15:02:00,63.0,61.0,29.76,NNW,340,15.0,22.0,93,-99.99,,,-99.99,,2013-06-09 20:02:00,
2013-06-09 15:12:00,63.0,61.0,29.76,NNW,330,16.0,27.0,93,-99.99,,,-99.99,,2013-06-09 20:12:00,
2013-06-09 15:22:00,63.0,61.0,29.76,NNW,330,16.0,27.0,93,-99.99,,,-99.99,,2013-06-09 20:22:00,
2013-06-09 15:32:00,64.0,63.0,29.76,NNW,330,17.0,23.0,93,-99.99,,,-99.99,,2013-06-09 20:32:00,
2013-06-09 15:42:00,64.0,63.0,29.76,NNW,330,17.0,23.0,93,-99.99,,,-99.99,,2013-06-09 20:42:00,
2013-06-09 15:52:00,64.0,61.0,29.77,NW,320,20.0,28.0,88,-99.99,,,-99.99,,2013-06-09 20:52:00,
2013-06-09 16:02:00,64.0,61.0,29.77,NW,320,20.0,28.0,88,-99.99,,,-99.99,,2013-06-09 21:02:00,
2013-06-09 16:12:00,63.0,61.0,29.78,NNW,330,16.0,28.0,93,-99.99,,,-99.99,,2013-06-09 21:12:00,
2013-06-09 16:22:00,63.0,61.0,29.78,NNW,330,16.0,28.0,93,-99.99,,,-99.99,,2013-06-09 21:22:00,
2013-06-09 16:33:00,63.0,61.0,29.78,NNW,340,18.0,27.0,93,-99.99,,,-99.99,,2013-06-09 21:33:00,
2013-06-09 16:43:00,63.0,61.0,29.78,NNW,340,18.0,27.0,93,-99.99,,,-99.99,,2013-06-09 21:43:00,
2013-06-09 16:53:00,63.0,61.0,29.78,NNW,330,17.0,-999.0,93,-99.99,,,-99.99,,2013-06-09 21:53:00,
2013-06-09 17:02:00,63.0,61.0,29.78,NNW,330,17.0,-999.0,93,-99.99,,,-99.99,,2013-06-09 22:02:00,
2013-06-09 17:13:00,63.0,61.0,29.78,NNW,340,15.0,20.0,93,-99.99,,,-99.99,,2013-06-09 22:13:00,
2013-06-09 17:23:00,63.0,61.0,29.78,NNW,340,15.0,20.0,93,-99.99,,,-99.99,,2013-06-09 22:23:00,
2013-06-09 17:33:00,64.0,61.0,29.79,NNW,340,16.0,23.0,88,-99.99,,,-99.99,,2013-06-09 22:33:00,
2013-06-09 17:42:00,64.0,61.0,29.79,NNW,340,16.0,23.0,88,-99.99,,,-99.99,,2013-06-09 22:42:00,
2013-06-09 17:52:00,64.0,63.0,29.79,NNW,340,15.0,22.0,93,-99.99,,,-99.99,,2013-06-09 22:52:00,
2013-06-09 18:02:00,64.0,63.0,29.79,NNW,340,15.0,22.0,93,-99.99,,,-99.99,,2013-06-09 23:02:00,
2013-06-09 18:12:00,64.0,63.0,29.80,NNW,340,13.0,20.0,93,-99.99,,,-99.99,,2013-06-09 23:12:00,
2013-06-09 18:22:00,64.0,63.0,29.80,NNW,340,13.0,20.0,93,-99.99,,,-99.99,,2013-06-09 23:22:00,
2013-06-09 18:32:00,64.0,63.0,29.80,North,350,17.0,24.0,93,-99.99,,,-99.99,,2013-06-09 23:32:00,
2013-06-09 18:42:00,64.0,63.0,29.80,North,350,17.0,24.0,93,-99.99,,,-99.99,,2013-06-09 23:42:00,
2013-06-09 18:52:00,64.0,63.0,29.81,NNW,340,15.0,20.0,93,-99.99,,,-99.99,,2013-06-09 23:52:00,
2013-06-09 19:02:00,64.0,63.0,29.81,NNW,340,15.0,20.0,93,-99.99,,,-99.99,,2013-06-10 00:02:00,
2013-06-09 19:13:00,63.0,61.0,29.81,NNW,340,12.0,17.0,93,-99.99,,,-99.99,,2013-06-10 00:13:00,
2013-06-09 19:22:00,63.0,61.0,29.81,NNW,340,12.0,17.0,93,-99.99,,,-99.99,,2013-06-10 00:22:00,
2013-06-09 19:32:00,64.0,63.0,29.82,North,350,17.0,-999.0,93,-99.99,,,-99.99,,2013-06-10 00:32:00,
2013-06-09 19:42:00,64.0,63.0,29.82,North,350,17.0,-999.0,93,-99.99,,,-99.99,,2013-06-10 00:42:00,
2013-06-09 19:52:00,63.0,63.0,29.82,North,350,16.0,21.0,100,-99.99,,,-99.99,,2013-06-10 00:52:00,
2013-06-09 20:02:00,63.0,63.0,29.82,North,350,16.0,21.0,100,-99.99,,,-99.99,,2013-06-10 01:02:00,
2013-06-09 20:12:00,63.0,63.0,29.83,North,350,9.0,-999.0,100,-99.99,,,-99.99,,2013-06-10 01:12:00,
2013-06-09 20:22:00,63.0,63.0,29.83,North,350,9.0,-999.0,100,-99.99,,,-99.99,,2013-06-10 01:22:00,
2013-06-09 20:32:00,63.0,61.0,29.84,NNW,340,10.0,18.0,93,-99.99,,,-99.99,,2013-06-10 01:32:00,
2013-06-09 20:43:00,63.0,61.0,29.84,NNW,340,10.0,18.0,93,-99.99,,,-99.99,,2013-06-10 01:43:00,
2013-06-09 20:52:00,63.0,61.0,29.85,North,350,8.0,-999.0,93,-99.99,,,-99.99,,2013-06-10 01:52:00,
2013-06-09 21:02:00,63.0,61.0,29.85,North,350,8.0,-999.0,93,-99.99,,,-99.99,,2013-06-10 02:02:00,
2013-06-09 21:12:00,63.0,61.0,29.85,North,350,8.0,-999.0,93,-99.99,,,-99.99,,2013-06-10 02:12:00,
2013-06-09 21:22:00,63.0,61.0,29.85,North,350,8.0,-999.0,93,-99.99,,,-99.99,,2013-06-10 02:22:00,
2013-06-09 21:32:00,61.0,61.0,29.85,North,350,7.0,-999.0,100,-99.99,,,-99.99,,2013-06-10 02:32:00,
2013-06-09 21:42:00,61.0,61.0,29.85,North,350,7.0,-999.0,100,-99.99,,,-99.99,,2013-06-10 02:42:00,
2013-06-09 21:52:00,61.0,61.0,29.86,North,-999,-999.0,-999.0,100,-99.99,,,-99.99,,2013-06-10 02:52:00,
2013-06-09 22:02:00,61.0,61.0,29.86,North,-999,-999.0,-999.0,100,-99.99,,,-99.99,,2013-06-10 03:02:00,
2013-06-09 22:12:00,59.0,59.0,29.86,North,350,5.0,-999.0,100,-99.99,,,-99.99,,2013-06-10 03:12:00,
2013-06-09 22:22:00,59.0,59.0,29.86,North,350,5.0,-999.0,100,-99.99,,,-99.99,,2013-06-10 03:22:00,
2013-06-09 22:33:00,59.0,59.0,29.87,North,-999,-999.0,-999.0,100,-99.99,,,-99.99,,2013-06-10 03:33:00,
2013-06-09 22:43:00,59.0,59.0,29.87,North,-999,-999.0,-999.0,100,-99.99,,,-99.99,,2013-06-10 03:43:00,
2013-06-09 22:53:00,59.0,59.0,29.88,North,-999,-999.0,-999.0,100,-99.99,,,-99.99,,2013-06-10 03:53:00,
2013-06-09 23:03:00,59.0,59.0,29.88,North,-999,-999.0,-999.0,100,-99.99,,,-99.99,,2013-06-10 04:03:00,
2013-06-09 23:12:00,57.0,57.0,29.88,North,-999,-999.0,-999.0,100,-99.99,,,-99.99,,2013-06-10 04:12:00,
2013-06-09 23:23:00,57.0,57.0,29.88,North,-999,-999.0,-999.0,100,-99.99,,,-99.99,,2013-06-10 04:23:00,
2013-06-09 23:33:00,57.0,57.0,29.88,North,350,5.0,-999.0,100,-99.99,,,-99.99,,2013-06-10 04:33:00,
2013-06-09 23:42:00,57.0,57.0,29.88,North,350,5.0,-999.0,100,-99.99,,,-99.99,,2013-06-10 04:42:00,
2013-06-09 23:52:00,57.0,57.0,29.88,North,350,6.0,-999.0,100,-99.99,,,-99.99,,2013-06-10 04:52:00,